createdAt,value
2018-08-30T00:01:43.773Z,11.60
2018-08-30T00:04:15.340Z,11.50
2018-08-30T00:06:46.928Z,12.67
2018-08-30T00:09:18.521Z,12.27
2018-08-30T00:11:50.506Z,11.67
2018-08-30T00:14:22.263Z,12.03
2018-08-30T00:16:54.121Z,13.40
2018-08-30T00:19:25.387Z,12.30
2018-08-30T00:22:03.123Z,12.87
2018-08-30T00:24:34.870Z,13.60
2018-08-30T00:27:05.587Z,12.27
2018-08-30T00:29:37.324Z,12.17
2018-08-30T00:32:08.786Z,12.33
2018-08-30T00:34:40.843Z,13.13
2018-08-30T00:37:13.319Z,13.10
2018-08-30T00:39:44.737Z,13.30
2018-08-30T00:42:15.924Z,12.93
2018-08-30T00:44:47.535Z,12.77
2018-08-30T00:47:21.122Z,12.27
2018-08-30T00:49:52.669Z,12.37
2018-08-30T00:52:24.257Z,12.20
2018-08-30T00:54:56.086Z,11.43
2018-08-30T00:57:28.077Z,13.73
2018-08-30T01:00:00.682Z,14.23
2018-08-30T01:02:32.340Z,12.27
2018-08-30T01:05:04.043Z,12.57
2018-08-30T01:07:35.406Z,12.53
2018-08-30T01:10:06.844Z,12.33
2018-08-30T01:12:44.244Z,13.77
2018-08-30T01:15:16.370Z,13.27
2018-08-30T01:17:48.155Z,14.43
2018-08-30T01:20:20.366Z,13.57
2018-08-30T01:22:51.691Z,14.47
2018-08-30T01:25:23.153Z,14.30
2018-08-30T01:27:54.438Z,13.10
2018-08-30T01:30:25.832Z,12.83
2018-08-30T01:32:57.070Z,13.10
2018-08-30T01:35:29.157Z,13.67
2018-08-30T01:38:01.102Z,13.13
2018-08-30T01:40:32.590Z,14.50
2018-08-30T01:43:04.655Z,13.47
2018-08-30T01:45:36.440Z,14.27
2018-08-30T01:48:07.917Z,14.00
2018-08-30T01:50:39.563Z,13.90
2018-08-30T01:53:11.112Z,14.63
2018-08-30T01:55:42.892Z,15.03
2018-08-30T01:58:14.765Z,14.67
2018-08-30T02:00:47.457Z,13.93
2018-08-30T02:03:19.201Z,14.57
2018-08-30T02:05:50.571Z,15.37
2018-08-30T02:08:22.257Z,14.37
2018-08-30T02:10:53.647Z,13.97
2018-08-30T02:13:24.296Z,14.13
2018-08-30T02:15:56.256Z,14.37
2018-08-30T02:18:28.251Z,15.07
2018-08-30T02:20:59.803Z,13.87
2018-08-30T02:23:31.589Z,14.13
2018-08-30T02:26:03.586Z,13.50
2018-08-30T02:28:35.623Z,14.10
2018-08-30T02:31:08.339Z,14.73
2018-08-30T02:33:43.111Z,15.73
2018-08-30T02:36:15.688Z,14.47
2018-08-30T02:38:47.444Z,14.17
2018-08-30T02:41:20.225Z,14.03
2018-08-30T02:43:52.309Z,19.07
2018-08-30T02:46:24.202Z,14.63
2018-08-30T02:48:56.079Z,15.40
2018-08-30T02:51:27.207Z,13.97
2018-08-30T02:53:59.534Z,14.73
2018-08-30T02:56:32.048Z,14.50
2018-08-30T02:59:03.747Z,14.97
2018-08-30T03:01:35.083Z,15.23
2018-08-30T03:04:07.372Z,15.77
2018-08-30T03:06:38.849Z,14.60
2018-08-30T03:09:11.157Z,14.30
2018-08-30T03:11:43.379Z,13.53
2018-08-30T03:14:15.689Z,13.93
2018-08-30T03:16:47.578Z,14.07
2018-08-30T03:19:19.179Z,14.63
2018-08-30T03:21:51.081Z,14.33
2018-08-30T03:24:22.309Z,14.50
2018-08-30T03:26:54.099Z,14.10
2018-08-30T03:29:26.079Z,14.20
2018-08-30T03:31:57.726Z,14.37
2018-08-30T03:34:28.804Z,13.77
2018-08-30T03:37:01.087Z,14.07
2018-08-30T03:39:33.031Z,14.43
2018-08-30T03:42:05.015Z,15.03
2018-08-30T03:44:36.957Z,14.80
2018-08-30T03:47:09.204Z,14.80
2018-08-30T03:49:41.536Z,14.73
2018-08-30T03:52:13.447Z,14.83
2018-08-30T03:54:46.378Z,14.77
2018-08-30T03:57:16.650Z,14.57
2018-08-30T03:59:47.587Z,14.50
2018-08-30T04:02:17.854Z,15.00
2018-08-30T04:04:48.159Z,13.93
2018-08-30T04:07:18.477Z,13.73
2018-08-30T04:09:48.644Z,13.43
2018-08-30T04:12:18.864Z,14.17
2018-08-30T04:14:49.236Z,15.43
2018-08-30T04:17:19.355Z,15.77
2018-08-30T04:19:49.613Z,15.80
2018-08-30T04:22:20.022Z,14.70
2018-08-30T04:24:50.209Z,15.83
2018-08-30T04:27:20.376Z,17.07
2018-08-30T04:29:50.628Z,16.20
2018-08-30T04:32:20.893Z,14.90
2018-08-30T04:34:51.162Z,17.13
2018-08-30T04:37:21.170Z,16.57
2018-08-30T04:39:51.326Z,15.03
2018-08-30T04:42:22.186Z,15.30
2018-08-30T04:44:52.555Z,15.93
2018-08-30T04:47:22.834Z,17.07
2018-08-30T04:49:53.053Z,17.83
2018-08-30T04:52:23.466Z,17.47
2018-08-30T04:54:54.006Z,17.43
2018-08-30T04:57:24.118Z,19.37
2018-08-30T04:59:54.325Z,19.10
2018-08-30T05:02:24.635Z,18.63
2018-08-30T05:04:55.068Z,18.37
2018-08-30T05:07:25.471Z,19.03
2018-08-30T05:09:56.775Z,19.87
2018-08-30T05:12:27.096Z,19.03
2018-08-30T05:14:57.371Z,19.37
2018-08-30T05:17:28.347Z,20.30
2018-08-30T05:19:58.653Z,20.30
2018-08-30T05:22:28.928Z,20.50
2018-08-30T05:24:59.126Z,18.57
2018-08-30T05:27:29.098Z,18.53
2018-08-30T05:29:59.044Z,18.90
2018-08-30T05:32:29.189Z,19.20
2018-08-30T05:34:59.489Z,18.93
2018-08-30T05:37:29.589Z,17.70
2018-08-30T05:39:59.812Z,18.43
2018-08-30T05:42:30.173Z,17.97
2018-08-30T05:45:00.500Z,18.63
2018-08-30T05:47:30.802Z,17.70
2018-08-30T05:50:01.449Z,18.23
2018-08-30T05:52:31.692Z,17.20
2018-08-30T05:55:02.266Z,15.90
2018-08-30T05:57:32.049Z,15.70
2018-08-30T06:00:02.431Z,15.87
2018-08-30T06:02:32.235Z,15.53
2018-08-30T06:05:02.161Z,15.77
2018-08-30T06:07:32.250Z,15.07
2018-08-30T06:10:02.142Z,15.07
2018-08-30T06:12:31.985Z,14.47
2018-08-30T06:15:01.882Z,13.03
2018-08-30T06:17:31.662Z,14.73
2018-08-30T06:20:01.474Z,15.10
2018-08-30T06:22:31.445Z,14.80
2018-08-30T06:25:01.353Z,14.80
2018-08-30T06:27:31.117Z,15.60
2018-08-30T06:30:01.700Z,15.13
2018-08-30T06:32:31.807Z,14.53
2018-08-30T06:35:01.800Z,14.03
2018-08-30T06:37:31.813Z,13.90
2018-08-30T06:40:01.644Z,11.93
2018-08-30T06:42:31.690Z,12.17
2018-08-30T06:45:01.609Z,11.90
2018-08-30T06:47:31.587Z,12.20
2018-08-30T06:50:01.489Z,11.73
2018-08-30T06:52:31.380Z,11.97
2018-08-30T06:55:01.373Z,12.07
2018-08-30T06:57:31.191Z,11.60
2018-08-30T07:00:00.948Z,12.60
2018-08-30T07:02:30.825Z,12.30
2018-08-30T07:05:00.886Z,12.43
2018-08-30T07:07:30.829Z,12.10
2018-08-30T07:10:00.851Z,11.93
2018-08-30T07:12:30.801Z,10.80
2018-08-30T07:15:00.812Z,12.17
2018-08-30T07:17:30.546Z,11.87
2018-08-30T07:20:00.424Z,11.07
2018-08-30T07:22:30.532Z,10.87
2018-08-30T07:25:00.401Z,10.63
2018-08-30T07:27:30.150Z,10.87
2018-08-30T07:29:59.964Z,9.83
2018-08-30T07:32:30.087Z,11.10
2018-08-30T07:35:00.106Z,11.00
2018-08-30T07:37:29.883Z,10.77
2018-08-30T07:39:59.625Z,11.63
2018-08-30T07:42:29.534Z,11.40
2018-08-30T07:44:59.404Z,11.37
2018-08-30T07:47:29.185Z,10.33
2018-08-30T07:49:59.094Z,10.20
2018-08-30T07:52:29.078Z,10.30
2018-08-30T07:54:59.127Z,10.83
2018-08-30T07:57:29.423Z,10.63
2018-08-30T07:59:59.620Z,10.40
2018-08-30T08:02:29.886Z,10.07
2018-08-30T08:05:00.082Z,10.80
2018-08-30T08:07:30.544Z,9.80
2018-08-30T08:10:00.819Z,10.27
2018-08-30T08:12:31.059Z,10.30
2018-08-30T08:15:01.306Z,11.07
2018-08-30T08:17:31.531Z,10.20
2018-08-30T08:20:01.615Z,11.77
2018-08-30T08:22:31.964Z,10.87
2018-08-30T08:25:02.426Z,10.47
2018-08-30T08:27:32.648Z,10.40
2018-08-30T08:30:03.031Z,9.90
2018-08-30T08:32:33.385Z,11.30
2018-08-30T08:35:03.568Z,9.93
2018-08-30T08:37:33.765Z,10.50
2018-08-30T08:40:03.939Z,10.63
2018-08-30T08:42:34.328Z,9.80
2018-08-30T08:45:04.832Z,10.33
2018-08-30T08:47:35.144Z,10.37
2018-08-30T08:50:05.290Z,9.97
2018-08-30T08:52:35.561Z,9.83
2018-08-30T08:55:05.940Z,9.93
2018-08-30T08:57:36.220Z,9.95
2018-08-30T09:00:06.484Z,9.95
2018-08-30T09:02:36.749Z,10.20
2018-08-30T09:05:07.269Z,10.18
2018-08-30T09:07:37.590Z,10.40
2018-08-30T09:10:08.157Z,9.75
2018-08-30T09:12:38.385Z,9.63
2018-08-30T09:15:09.064Z,9.93
2018-08-30T09:17:39.155Z,10.30
2018-08-30T09:20:09.301Z,9.68
2018-08-30T09:22:39.456Z,9.50
2018-08-30T09:25:09.677Z,9.73
2018-08-30T09:27:39.907Z,9.00
2018-08-30T09:30:10.378Z,8.70
2018-08-30T09:32:41.352Z,9.55
2018-08-30T09:35:11.534Z,9.70
2018-08-30T09:37:41.646Z,9.38
2018-08-30T09:40:11.892Z,8.95
2018-08-30T09:42:42.258Z,9.25
2018-08-30T09:45:12.529Z,9.75
2018-08-30T09:47:42.808Z,9.78
2018-08-30T09:50:13.215Z,10.00
2018-08-30T09:52:43.502Z,10.58
2018-08-30T09:55:13.977Z,9.83
2018-08-30T09:57:44.053Z,8.78
2018-08-30T10:00:14.967Z,8.53
2018-08-30T10:02:50.204Z,8.10
2018-08-30T10:05:20.621Z,8.65
2018-08-30T10:07:50.813Z,7.78
2018-08-30T10:10:20.982Z,7.17
2018-08-30T10:12:51.149Z,7.85
2018-08-30T10:15:21.650Z,7.75
2018-08-30T10:17:51.856Z,7.90
2018-08-30T10:20:21.996Z,7.05
2018-08-30T10:22:52.451Z,6.35
2018-08-30T10:25:22.736Z,6.60
2018-08-30T10:27:53.051Z,6.80
2018-08-30T10:30:23.141Z,7.40
2018-08-30T10:32:52.900Z,6.90
2018-08-30T10:35:22.721Z,7.60
2018-08-30T10:37:52.559Z,7.70
2018-08-30T10:40:22.461Z,6.83
2018-08-30T10:42:52.269Z,7.33
2018-08-30T10:45:22.108Z,7.25
2018-08-30T10:47:51.912Z,7.40
2018-08-30T10:50:22.553Z,6.80
2018-08-30T10:52:53.468Z,7.45
2018-08-30T10:55:23.328Z,7.28
2018-08-30T10:57:53.613Z,7.47
2018-08-30T11:00:23.407Z,7.42
2018-08-30T11:02:53.189Z,7.30
2018-08-30T11:05:23.134Z,7.00
2018-08-30T11:07:52.947Z,7.05
2018-08-30T11:10:22.812Z,7.42
2018-08-30T11:12:52.601Z,7.17
2018-08-30T11:15:23.265Z,7.12
2018-08-30T11:17:53.386Z,7.47
2018-08-30T11:20:23.202Z,7.33
2018-08-30T11:22:53.013Z,7.12
2018-08-30T11:25:23.091Z,6.50
2018-08-30T11:27:52.954Z,7.08
2018-08-30T11:30:23.079Z,6.28
2018-08-30T11:32:53.073Z,6.35
2018-08-30T11:35:23.137Z,6.33
2018-08-30T11:37:53.027Z,6.50
2018-08-30T11:40:22.947Z,6.87
2018-08-30T11:42:53.004Z,6.80
2018-08-30T11:45:22.990Z,6.55
2018-08-30T11:47:52.921Z,6.65
2018-08-30T11:50:22.881Z,8.78
2018-08-30T11:52:52.752Z,7.70
2018-08-30T11:55:22.810Z,7.90
2018-08-30T11:57:52.691Z,6.22
2018-08-30T12:00:22.643Z,6.30
2018-08-30T12:02:52.760Z,5.87
2018-08-30T12:05:22.804Z,6.50
2018-08-30T12:07:52.740Z,6.90
2018-08-30T12:10:22.939Z,5.80
2018-08-30T12:12:52.858Z,5.40
2018-08-30T12:15:22.843Z,6.03
2018-08-30T12:17:53.043Z,6.37
2018-08-30T12:20:23.313Z,6.20
2018-08-30T12:22:53.612Z,5.87
2018-08-30T12:25:24.072Z,6.03
2018-08-30T12:27:54.213Z,6.28
2018-08-30T12:30:24.390Z,5.92
2018-08-30T12:32:55.216Z,5.83
2018-08-30T12:35:25.828Z,6.03
2018-08-30T12:37:55.857Z,5.80
2018-08-30T12:40:25.961Z,6.35
2018-08-30T12:42:56.214Z,5.50
2018-08-30T12:45:26.217Z,5.80
2018-08-30T12:47:56.300Z,5.47
2018-08-30T12:50:27.134Z,5.42
2018-08-30T12:52:57.708Z,6.22
2018-08-30T12:55:29.170Z,6.30
2018-08-30T12:57:59.408Z,6.00
2018-08-30T13:00:29.378Z,6.05
2018-08-30T13:02:59.507Z,6.00
2018-08-30T13:05:30.187Z,5.80
2018-08-30T13:08:00.187Z,6.17
2018-08-30T13:10:30.271Z,5.75
2018-08-30T13:13:00.646Z,6.00
2018-08-30T13:15:30.723Z,6.00
2018-08-30T13:18:00.475Z,5.78
2018-08-30T13:20:30.467Z,5.75
2018-08-30T13:23:00.671Z,5.42
2018-08-30T13:25:30.940Z,5.80
2018-08-30T13:28:00.804Z,5.65
2018-08-30T13:30:31.371Z,5.55
2018-08-30T13:33:01.356Z,7.28
2018-08-30T13:35:31.526Z,5.67
2018-08-30T13:38:01.708Z,6.15
2018-08-30T13:40:31.584Z,6.00
2018-08-30T13:43:01.954Z,5.83
2018-08-30T13:45:32.301Z,6.62
2018-08-30T13:48:02.839Z,6.03
2018-08-30T13:50:32.936Z,6.05
2018-08-30T13:53:03.232Z,5.75
2018-08-30T13:55:33.433Z,5.65
2018-08-30T13:58:03.563Z,6.10
2018-08-30T14:00:33.875Z,5.87
2018-08-30T14:03:03.512Z,6.70
2018-08-30T14:05:33.965Z,6.47
2018-08-30T14:08:04.082Z,5.47
2018-08-30T14:10:34.082Z,5.62
2018-08-30T14:13:04.115Z,6.20
2018-08-30T14:15:34.143Z,6.47
2018-08-30T14:18:03.681Z,6.58
2018-08-30T14:20:33.724Z,6.30
2018-08-30T14:23:03.874Z,6.58
2018-08-30T14:25:33.972Z,6.92
2018-08-30T14:28:03.843Z,6.83
2018-08-30T14:30:33.789Z,6.37
2018-08-30T14:33:03.675Z,6.47
2018-08-30T14:35:33.888Z,6.42
2018-08-30T14:38:03.548Z,6.55
2018-08-30T14:40:33.684Z,6.92
2018-08-30T14:43:03.607Z,6.70
2018-08-30T14:45:33.603Z,7.22
2018-08-30T14:48:03.728Z,7.30
2018-08-30T14:50:33.592Z,6.55
2018-08-30T14:53:03.660Z,7.33
2018-08-30T14:55:33.746Z,6.95
2018-08-30T14:58:03.541Z,6.60
2018-08-30T15:00:33.388Z,6.53
2018-08-30T15:03:03.422Z,6.85
2018-08-30T15:05:33.382Z,6.60
2018-08-30T15:08:03.309Z,6.70
2018-08-30T15:10:33.670Z,6.72
2018-08-30T15:13:04.074Z,6.42
2018-08-30T15:15:33.989Z,6.30
2018-08-30T15:18:03.782Z,7.15
2018-08-30T15:20:33.686Z,6.33
2018-08-30T15:23:03.750Z,6.95
2018-08-30T15:25:33.770Z,6.58
2018-08-30T15:28:03.813Z,6.72
2018-08-30T15:30:33.762Z,5.97
2018-08-30T15:33:04.047Z,8.23
2018-08-30T15:35:34.146Z,6.70
2018-08-30T15:38:04.036Z,6.70
2018-08-30T15:40:33.862Z,6.55
2018-08-30T15:43:04.138Z,6.62
2018-08-30T15:45:34.309Z,5.90
2018-08-30T15:48:04.475Z,6.53
2018-08-30T15:50:34.374Z,5.78
2018-08-30T15:53:04.513Z,6.25
2018-08-30T15:55:34.340Z,6.65
2018-08-30T15:58:04.269Z,6.25
2018-08-30T16:00:34.056Z,5.58
2018-08-30T16:03:04.005Z,6.12
2018-08-30T16:05:33.981Z,6.20
2018-08-30T16:08:03.848Z,6.40
2018-08-30T16:10:33.737Z,6.10
2018-08-30T16:13:03.635Z,5.95
2018-08-30T16:15:33.517Z,6.25
2018-08-30T16:18:03.270Z,6.05
2018-08-30T16:20:33.001Z,6.62
2018-08-30T16:23:07.277Z,7.37
2018-08-30T16:25:37.240Z,6.97
2018-08-30T16:28:07.132Z,7.20
2018-08-30T16:30:37.117Z,7.47
2018-08-30T16:33:07.027Z,7.50
2018-08-30T16:35:36.928Z,7.47
2018-08-30T16:38:06.977Z,7.78
2018-08-30T16:40:37.184Z,7.17
2018-08-30T16:43:07.459Z,14.60
2018-08-30T16:45:37.659Z,9.00
2018-08-30T16:48:08.951Z,8.00
2018-08-30T16:50:39.433Z,7.97
2018-08-30T16:53:09.696Z,8.45
2018-08-30T16:55:40.115Z,9.23
2018-08-30T16:58:10.286Z,8.40
2018-08-30T17:00:40.361Z,9.67
2018-08-30T17:03:10.745Z,8.47
2018-08-30T17:05:40.905Z,9.43
2018-08-30T17:08:11.302Z,9.53
2018-08-30T17:10:41.481Z,9.70
2018-08-30T17:13:11.676Z,9.73
2018-08-30T17:15:41.928Z,9.33
2018-08-30T17:18:11.862Z,9.77
2018-08-30T17:20:50.114Z,9.20
2018-08-30T17:23:20.606Z,9.27
2018-08-30T17:25:50.828Z,9.07
2018-08-30T17:28:20.968Z,10.20
2018-08-30T17:30:51.500Z,9.60
2018-08-30T17:33:22.220Z,9.97
2018-08-30T17:35:52.530Z,9.70
2018-08-30T17:38:22.554Z,9.50
2018-08-30T17:40:52.710Z,11.33
2018-08-30T17:43:23.043Z,10.47
2018-08-30T17:45:53.266Z,9.83
2018-08-30T17:48:23.521Z,9.50
2018-08-30T17:50:53.657Z,10.43
2018-08-30T17:53:23.956Z,10.57
2018-08-30T17:55:54.302Z,10.57
2018-08-30T17:58:24.485Z,10.07
2018-08-30T18:00:54.655Z,10.03
2018-08-30T18:03:24.870Z,18.30
2018-08-30T18:05:55.233Z,11.30
2018-08-30T18:08:25.273Z,10.90
2018-08-30T18:10:55.568Z,10.73
2018-08-30T18:13:25.789Z,11.20
2018-08-30T18:15:56.087Z,10.83
2018-08-30T18:18:26.247Z,10.63
2018-08-30T18:20:56.662Z,10.93
2018-08-30T18:23:26.854Z,10.20
2018-08-30T18:25:57.078Z,11.57
2018-08-30T18:28:27.283Z,11.37
2018-08-30T18:30:57.414Z,10.20
2018-08-30T18:33:27.588Z,10.40
2018-08-30T18:35:57.835Z,10.93
2018-08-30T18:38:27.928Z,10.57
2018-08-30T18:40:58.098Z,11.07
2018-08-30T18:43:28.697Z,10.97
2018-08-30T18:45:59.038Z,10.50
2018-08-30T18:48:29.316Z,10.47
2018-08-30T18:50:59.661Z,10.33
2018-08-30T18:53:30.073Z,10.00
2018-08-30T18:56:00.406Z,10.30
2018-08-30T18:58:30.927Z,9.87
2018-08-30T19:01:01.643Z,10.70
2018-08-30T19:03:31.984Z,9.37
2018-08-30T19:06:02.374Z,10.07
2018-08-30T19:08:33.568Z,9.73
2018-08-30T19:11:03.997Z,10.10
2018-08-30T19:13:34.229Z,9.97
2018-08-30T19:16:09.444Z,10.07
2018-08-30T19:18:44.553Z,10.17
2018-08-30T19:21:14.604Z,10.80
2018-08-30T19:23:45.116Z,9.67
2018-08-30T19:26:15.617Z,10.30
2018-08-30T19:28:45.686Z,11.13
2018-08-30T19:31:16.116Z,10.80
2018-08-30T19:33:46.403Z,10.67
2018-08-30T19:36:21.553Z,10.57
2018-08-30T19:38:51.763Z,11.00
2018-08-30T19:41:22.787Z,10.97
2018-08-30T19:43:53.926Z,11.03
2018-08-30T19:46:24.967Z,10.83
2018-08-30T19:48:55.225Z,11.53
2018-08-30T19:51:26.197Z,10.43
2018-08-30T19:53:57.826Z,11.00
2018-08-30T19:56:28.050Z,9.80
2018-08-30T19:58:58.179Z,11.00
2018-08-30T20:01:28.245Z,11.00
2018-08-30T20:03:59.450Z,10.90
2018-08-30T20:06:29.829Z,10.63
2018-08-30T20:09:00.838Z,10.73
2018-08-30T20:11:32.212Z,10.90
2018-08-30T20:14:02.352Z,10.07
2018-08-30T20:16:32.457Z,11.00
2018-08-30T20:19:02.716Z,11.47
2018-08-30T20:21:32.800Z,11.47
2018-08-30T20:24:03.035Z,11.30
2018-08-30T20:26:33.363Z,11.53
2018-08-30T20:29:03.644Z,10.03
2018-08-30T20:31:33.902Z,9.90
2018-08-30T20:34:04.061Z,11.27
2018-08-30T20:36:34.323Z,10.50
2018-08-30T20:39:05.579Z,11.33
2018-08-30T20:41:35.955Z,10.27
2018-08-30T20:44:06.533Z,10.70
2018-08-30T20:46:36.645Z,10.47
2018-08-30T20:49:07.272Z,10.80
2018-08-30T20:51:37.813Z,10.83
2018-08-30T20:54:08.017Z,11.23
2018-08-30T20:56:38.262Z,10.37
2018-08-30T20:59:08.477Z,10.57
2018-08-30T21:01:38.754Z,10.63
2018-08-30T21:04:08.902Z,10.53
2018-08-30T21:06:39.801Z,10.83
2018-08-30T21:09:10.602Z,11.10
2018-08-30T21:11:41.056Z,11.63
2018-08-30T21:14:11.428Z,12.20
2018-08-30T21:16:42.959Z,11.30
2018-08-30T21:19:14.400Z,10.80
2018-08-30T21:21:44.944Z,11.07
2018-08-30T21:24:16.370Z,11.97
2018-08-30T21:26:48.246Z,10.90
2018-08-30T21:29:19.274Z,11.77
2018-08-30T21:31:50.820Z,11.07
2018-08-30T21:34:22.091Z,11.33
2018-08-30T21:36:53.531Z,11.20
2018-08-30T21:39:24.756Z,12.10
2018-08-30T21:41:56.105Z,11.17
2018-08-30T21:44:27.929Z,10.97
2018-08-30T21:46:59.509Z,12.40
2018-08-30T21:49:30.960Z,12.27
2018-08-30T21:52:02.541Z,11.63
2018-08-30T21:54:33.976Z,12.10
2018-08-30T21:57:05.063Z,11.83
2018-08-30T21:59:36.680Z,11.40
2018-08-30T22:02:08.194Z,12.27
2018-08-30T22:04:39.155Z,11.83
2018-08-30T22:07:10.654Z,10.93
2018-08-30T22:09:42.129Z,11.57
2018-08-30T22:12:13.635Z,11.50
2018-08-30T22:14:44.818Z,10.57
2018-08-30T22:17:16.065Z,11.07
2018-08-30T22:19:47.522Z,11.57
2018-08-30T22:22:19.047Z,11.90
2018-08-30T22:24:50.329Z,11.30
2018-08-30T22:27:21.509Z,11.10
2018-08-30T22:29:53.277Z,11.37
2018-08-30T22:32:24.503Z,11.20
2018-08-30T22:34:56.222Z,11.37
2018-08-30T22:37:27.630Z,10.97
2018-08-30T22:39:58.734Z,10.47
2018-08-30T22:42:30.242Z,11.37
2018-08-30T22:45:02.508Z,11.30
2018-08-30T22:47:35.076Z,11.67
2018-08-30T22:50:07.360Z,11.57
2018-08-30T22:52:39.412Z,11.87
2018-08-30T22:55:11.097Z,11.00
2018-08-30T22:57:42.651Z,11.63
2018-08-30T23:00:14.359Z,11.60
2018-08-30T23:02:46.229Z,12.43
2018-08-30T23:05:17.611Z,11.10
2018-08-30T23:07:49.165Z,11.50
2018-08-30T23:10:21.227Z,12.27
2018-08-30T23:12:52.499Z,12.00
2018-08-30T23:15:24.097Z,12.43
2018-08-30T23:17:55.633Z,11.47
2018-08-30T23:20:27.031Z,12.27
2018-08-30T23:22:59.170Z,12.03
2018-08-30T23:25:30.868Z,13.37
2018-08-30T23:28:03.335Z,12.13
2018-08-30T23:30:35.486Z,12.27
2018-08-30T23:33:07.535Z,11.60
2018-08-30T23:35:39.073Z,11.30
2018-08-30T23:38:10.972Z,12.67
2018-08-30T23:40:43.085Z,11.90
2018-08-30T23:43:14.804Z,12.20
2018-08-30T23:45:46.416Z,12.77
2018-08-30T23:48:18.113Z,11.90
2018-08-30T23:50:49.660Z,11.40
2018-08-30T23:53:21.372Z,12.73
2018-08-30T23:55:53.145Z,11.57
2018-08-30T23:59:36.134Z,11.77
